sensor_id;sensor_type;location;lat;lon;timestamp;pressure;altitude;pressure_sealevel;temperature;humidity
21395;BME280;10858;42.714;23.180;2022-12-29T00:01:34;95320.94;;;6.88;77.38
21395;BME280;10858;42.714;23.180;2022-12-29T00:04:01;95313.97;;;6.87;77.09
21395;BME280;10858;42.714;23.180;2022-12-29T00:06:28;95319.38;;;7.14;76.46
21395;BME280;10858;42.714;23.180;2022-12-29T00:08:54;95320.88;;;7.04;75.99
21395;BME280;10858;42.714;23.180;2022-12-29T00:11:24;95323.50;;;7.04;76.10
21395;BME280;10858;42.714;23.180;2022-12-29T00:13:52;95326.06;;;6.46;77.90
21395;BME280;10858;42.714;23.180;2022-12-29T00:16:37;95321.00;;;6.27;79.47
21395;BME280;10858;42.714;23.180;2022-12-29T00:19:05;95330.09;;;6.37;79.06
21395;BME280;10858;42.714;23.180;2022-12-29T00:21:32;95332.50;;;6.56;78.04
21395;BME280;10858;42.714;23.180;2022-12-29T00:24:21;95341.78;;;6.47;77.69
21395;BME280;10858;42.714;23.180;2022-12-29T00:26:50;95344.09;;;6.38;77.84
21395;BME280;10858;42.714;23.180;2022-12-29T00:29:37;95351.00;;;6.25;78.69
21395;BME280;10858;42.714;23.180;2022-12-29T00:32:22;95353.31;;;6.31;78.28
21395;BME280;10858;42.714;23.180;2022-12-29T00:35:10;95350.69;;;6.15;79.07
21395;BME280;10858;42.714;23.180;2022-12-29T00:37:45;95348.13;;;6.29;78.57
21395;BME280;10858;42.714;23.180;2022-12-29T00:40:31;95348.88;;;6.47;78.05
21395;BME280;10858;42.714;23.180;2022-12-29T00:43:15;95356.44;;;6.37;78.50
21395;BME280;10858;42.714;23.180;2022-12-29T00:46:00;95355.69;;;6.35;78.42
21395;BME280;10858;42.714;23.180;2022-12-29T00:48:26;95350.50;;;6.63;77.80
21395;BME280;10858;42.714;23.180;2022-12-29T00:51:11;95350.00;;;6.72;77.15
21395;BME280;10858;42.714;23.180;2022-12-29T00:53:37;95345.03;;;6.82;76.93
21395;BME280;10858;42.714;23.180;2022-12-29T00:56:03;95343.38;;;6.65;77.26
21395;BME280;10858;42.714;23.180;2022-12-29T00:58:30;95339.63;;;6.69;77.49
21395;BME280;10858;42.714;23.180;2022-12-29T01:01:07;95343.47;;;6.94;76.71
21395;BME280;10858;42.714;23.180;2022-12-29T01:03:35;95348.00;;;7.06;75.94
21395;BME280;10858;42.714;23.180;2022-12-29T01:06:03;95343.47;;;6.94;76.06
21395;BME280;10858;42.714;23.180;2022-12-29T01:08:30;95348.63;;;6.81;77.12
21395;BME280;10858;42.714;23.180;2022-12-29T01:11:00;95344.19;;;7.11;76.08
21395;BME280;10858;42.714;23.180;2022-12-29T01:13:27;95341.72;;;7.08;75.64
21395;BME280;10858;42.714;23.180;2022-12-29T01:15:53;95342.50;;;6.80;76.59
21395;BME280;10858;42.714;23.180;2022-12-29T01:18:20;95341.63;;;6.80;76.73
21395;BME280;10858;42.714;23.180;2022-12-29T01:20:47;95338.38;;;6.91;76.64
21395;BME280;10858;42.714;23.180;2022-12-29T01:23:14;95333.59;;;6.97;76.26
21395;BME280;10858;42.714;23.180;2022-12-29T01:25:40;95327.03;;;7.18;75.16
21395;BME280;10858;42.714;23.180;2022-12-29T01:28:06;95335.38;;;6.97;75.15
21395;BME280;10858;42.714;23.180;2022-12-29T01:30:34;95325.81;;;6.80;76.50
21395;BME280;10858;42.714;23.180;2022-12-29T01:33:01;95323.25;;;7.08;74.90
21395;BME280;10858;42.714;23.180;2022-12-29T01:35:28;95316.97;;;7.25;74.22
21395;BME280;10858;42.714;23.180;2022-12-29T01:37:54;95317.28;;;6.91;74.94
21395;BME280;10858;42.714;23.180;2022-12-29T01:40:20;95312.41;;;6.99;74.62
21395;BME280;10858;42.714;23.180;2022-12-29T01:42:46;95311.69;;;6.51;75.71
21395;BME280;10858;42.714;23.180;2022-12-29T01:45:15;95309.75;;;6.55;76.35
21395;BME280;10858;42.714;23.180;2022-12-29T01:47:55;95318.00;;;6.78;75.21
21395;BME280;10858;42.714;23.180;2022-12-29T01:50:27;95313.09;;;6.72;74.97
21395;BME280;10858;42.714;23.180;2022-12-29T01:55:37;95307.53;;;6.47;76.36
21395;BME280;10858;42.714;23.180;2022-12-29T01:58:07;95306.50;;;6.50;75.95
21395;BME280;10858;42.714;23.180;2022-12-29T02:00:34;95299.41;;;6.36;76.57
21395;BME280;10858;42.714;23.180;2022-12-29T02:03:00;95293.91;;;6.10;77.77
21395;BME280;10858;42.714;23.180;2022-12-29T02:05:56;95295.16;;;6.34;77.47
21395;BME280;10858;42.714;23.180;2022-12-29T02:08:28;95294.75;;;6.10;78.09
21395;BME280;10858;42.714;23.180;2022-12-29T02:10:56;95294.31;;;6.33;78.06
21395;BME280;10858;42.714;23.180;2022-12-29T02:13:27;95295.84;;;6.37;77.29
21395;BME280;10858;42.714;23.180;2022-12-29T02:19:35;95295.25;;;6.32;77.04
21395;BME280;10858;42.714;23.180;2022-12-29T02:32:40;95299.06;;;6.42;78.22
21395;BME280;10858;42.714;23.180;2022-12-29T02:41:14;95291.22;;;6.11;79.41
21395;BME280;10858;42.714;23.180;2022-12-29T02:44:21;95299.69;;;6.16;79.39
21395;BME280;10858;42.714;23.180;2022-12-29T02:47:04;95293.63;;;6.30;78.71
21395;BME280;10858;42.714;23.180;2022-12-29T02:50:09;95300.66;;;6.45;78.40
21395;BME280;10858;42.714;23.180;2022-12-29T02:52:31;95306.09;;;6.71;77.14
21395;BME280;10858;42.714;23.180;2022-12-29T02:55:00;95299.66;;;6.61;76.83
21395;BME280;10858;42.714;23.180;2022-12-29T03:00:13;95291.91;;;6.44;78.09
21395;BME280;10858;42.714;23.180;2022-12-29T03:08:34;95266.91;;;6.65;76.84
21395;BME280;10858;42.714;23.180;2022-12-29T03:13:43;95269.13;;;6.73;76.32
21395;BME280;10858;42.714;23.180;2022-12-29T03:16:32;95265.75;;;6.55;75.85
21395;BME280;10858;42.714;23.180;2022-12-29T03:19:06;95267.06;;;6.48;75.92
21395;BME280;10858;42.714;23.180;2022-12-29T03:21:43;95271.13;;;6.24;76.35
21395;BME280;10858;42.714;23.180;2022-12-29T03:24:35;95264.69;;;5.98;77.11
21395;BME280;10858;42.714;23.180;2022-12-29T03:27:05;95281.41;;;5.82;77.61
21395;BME280;10858;42.714;23.180;2022-12-29T03:29:37;95276.00;;;5.85;77.18
21395;BME280;10858;42.714;23.180;2022-12-29T03:32:05;95280.41;;;5.69;76.49
21395;BME280;10858;42.714;23.180;2022-12-29T03:34:33;95283.25;;;5.49;76.63
21395;BME280;10858;42.714;23.180;2022-12-29T03:37:11;95278.50;;;5.55;75.75
21395;BME280;10858;42.714;23.180;2022-12-29T03:39:39;95284.47;;;4.93;76.31
21395;BME280;10858;42.714;23.180;2022-12-29T03:42:08;95283.09;;;4.86;76.78
21395;BME280;10858;42.714;23.180;2022-12-29T03:44:37;95290.16;;;4.69;76.15
21395;BME280;10858;42.714;23.180;2022-12-29T03:47:06;95285.03;;;4.31;77.02
21395;BME280;10858;42.714;23.180;2022-12-29T03:49:32;95289.66;;;4.09;78.26
21395;BME280;10858;42.714;23.180;2022-12-29T03:51:58;95297.72;;;3.88;78.83
21395;BME280;10858;42.714;23.180;2022-12-29T03:54:25;95290.44;;;3.76;79.18
21395;BME280;10858;42.714;23.180;2022-12-29T03:56:51;95301.78;;;3.76;79.07
21395;BME280;10858;42.714;23.180;2022-12-29T03:59:17;95298.88;;;3.64;80.03
21395;BME280;10858;42.714;23.180;2022-12-29T04:01:43;95299.16;;;3.76;79.66
21395;BME280;10858;42.714;23.180;2022-12-29T04:04:10;95295.97;;;3.70;79.85
21395;BME280;10858;42.714;23.180;2022-12-29T04:06:36;95300.34;;;3.69;79.99
21395;BME280;10858;42.714;23.180;2022-12-29T04:09:02;95301.56;;;3.81;79.56
21395;BME280;10858;42.714;23.180;2022-12-29T04:11:28;95299.47;;;3.87;79.62
21395;BME280;10858;42.714;23.180;2022-12-29T04:13:55;95301.78;;;3.76;80.11
21395;BME280;10858;42.714;23.180;2022-12-29T04:16:21;95298.59;;;3.70;81.58
21395;BME280;10858;42.714;23.180;2022-12-29T04:18:47;95298.69;;;4.04;80.62
21395;BME280;10858;42.714;23.180;2022-12-29T04:21:13;95291.97;;;3.98;80.83
21395;BME280;10858;42.714;23.180;2022-12-29T04:23:39;95299.56;;;3.86;81.57
21395;BME280;10858;42.714;23.180;2022-12-29T04:26:06;95296.09;;;3.85;82.00
21395;BME280;10858;42.714;23.180;2022-12-29T04:28:34;95298.03;;;3.99;81.67
21395;BME280;10858;42.714;23.180;2022-12-29T04:31:00;95290.31;;;3.79;82.64
21395;BME280;10858;42.714;23.180;2022-12-29T04:33:26;95292.84;;;3.80;83.32
21395;BME280;10858;42.714;23.180;2022-12-29T04:35:52;95301.31;;;4.04;82.49
21395;BME280;10858;42.714;23.180;2022-12-29T04:38:20;95309.38;;;4.35;81.56
21395;BME280;10858;42.714;23.180;2022-12-29T04:40:47;95314.97;;;4.46;80.96
21395;BME280;10858;42.714;23.180;2022-12-29T04:43:14;95311.88;;;4.55;81.33
21395;BME280;10858;42.714;23.180;2022-12-29T04:45:45;95311.47;;;4.46;81.87
21395;BME280;10858;42.714;23.180;2022-12-29T04:48:12;95321.75;;;4.50;81.59
21395;BME280;10858;42.714;23.180;2022-12-29T04:50:39;95321.47;;;4.56;81.58
21395;BME280;10858;42.714;23.180;2022-12-29T04:53:05;95315.41;;;4.71;81.29
21395;BME280;10858;42.714;23.180;2022-12-29T04:55:32;95331.72;;;5.12;80.59
21395;BME280;10858;42.714;23.180;2022-12-29T04:57:58;95332.97;;;4.88;80.14
21395;BME280;10858;42.714;23.180;2022-12-29T05:00:24;95333.50;;;4.77;81.36
21395;BME280;10858;42.714;23.180;2022-12-29T05:02:50;95332.59;;;5.28;80.65
21395;BME280;10858;42.714;23.180;2022-12-29T05:05:17;95331.91;;;5.25;80.13
21395;BME280;10858;42.714;23.180;2022-12-29T05:07:43;95339.81;;;5.25;80.11
21395;BME280;10858;42.714;23.180;2022-12-29T05:10:09;95337.22;;;5.40;80.00
21395;BME280;10858;42.714;23.180;2022-12-29T05:12:37;95337.19;;;5.25;79.82
21395;BME280;10858;42.714;23.180;2022-12-29T05:15:05;95339.78;;;4.58;82.85
21395;BME280;10858;42.714;23.180;2022-12-29T05:20:41;95332.69;;;5.09;82.23
21395;BME280;10858;42.714;23.180;2022-12-29T05:23:07;95341.06;;;5.17;81.41
21395;BME280;10858;42.714;23.180;2022-12-29T05:25:33;95344.00;;;5.11;81.66
21395;BME280;10858;42.714;23.180;2022-12-29T05:28:00;95343.22;;;5.27;81.20
21395;BME280;10858;42.714;23.180;2022-12-29T05:30:26;95341.34;;;5.29;81.14
21395;BME280;10858;42.714;23.180;2022-12-29T05:32:52;95341.06;;;5.17;81.65
21395;BME280;10858;42.714;23.180;2022-12-29T05:35:18;95334.22;;;5.31;81.16
21395;BME280;10858;42.714;23.180;2022-12-29T05:37:44;95340.03;;;5.20;81.10
21395;BME280;10858;42.714;23.180;2022-12-29T05:40:11;95339.50;;;5.13;81.55
21395;BME280;10858;42.714;23.180;2022-12-29T05:42:37;95342.00;;;5.16;81.44
21395;BME280;10858;42.714;23.180;2022-12-29T05:45:04;95347.00;;;5.21;81.08
21395;BME280;10858;42.714;23.180;2022-12-29T05:47:33;95345.88;;;5.42;80.78
21395;BME280;10858;42.714;23.180;2022-12-29T05:49:59;95344.94;;;5.43;80.70
21395;BME280;10858;42.714;23.180;2022-12-29T05:52:43;95349.44;;;5.41;80.42
21395;BME280;10858;42.714;23.180;2022-12-29T05:55:10;95348.53;;;5.58;80.58
21395;BME280;10858;42.714;23.180;2022-12-29T05:57:36;95349.66;;;5.69;80.00
21395;BME280;10858;42.714;23.180;2022-12-29T06:00:04;95350.84;;;5.64;80.27
21395;BME280;10858;42.714;23.180;2022-12-29T06:02:30;95349.38;;;5.26;81.06
21395;BME280;10858;42.714;23.180;2022-12-29T06:04:57;95351.88;;;5.29;81.74
21395;BME280;10858;42.714;23.180;2022-12-29T06:07:23;95356.63;;;5.70;80.64
21395;BME280;10858;42.714;23.180;2022-12-29T06:09:49;95361.94;;;5.86;80.03
21395;BME280;10858;42.714;23.180;2022-12-29T06:12:15;95361.03;;;5.70;80.45
21395;BME280;10858;42.714;23.180;2022-12-29T06:14:42;95360.69;;;5.60;80.56
21395;BME280;10858;42.714;23.180;2022-12-29T06:17:08;95359.72;;;5.46;80.90
21395;BME280;10858;42.714;23.180;2022-12-29T06:19:35;95363.34;;;5.43;81.68
21395;BME280;10858;42.714;23.180;2022-12-29T06:22:01;95363.66;;;5.54;81.26
21395;BME280;10858;42.714;23.180;2022-12-29T06:24:27;95362.38;;;5.61;81.35
21395;BME280;10858;42.714;23.180;2022-12-29T06:26:54;95368.03;;;5.71;80.43
21395;BME280;10858;42.714;23.180;2022-12-29T06:29:20;95361.38;;;5.64;80.43
21395;BME280;10858;42.714;23.180;2022-12-29T06:31:46;95361.47;;;5.62;81.25
21395;BME280;10858;42.714;23.180;2022-12-29T06:34:13;95361.53;;;5.93;79.92
21395;BME280;10858;42.714;23.180;2022-12-29T06:36:39;95370.28;;;5.94;80.09
21395;BME280;10858;42.714;23.180;2022-12-29T06:39:06;95367.22;;;6.01;79.15
21395;BME280;10858;42.714;23.180;2022-12-29T06:41:32;95362.31;;;6.27;78.97
21395;BME280;10858;42.714;23.180;2022-12-29T06:43:58;95355.06;;;6.46;78.18
21395;BME280;10858;42.714;23.180;2022-12-29T06:46:25;95368.34;;;6.44;77.61
21395;BME280;10858;42.714;23.180;2022-12-29T06:48:51;95355.91;;;6.46;77.50
21395;BME280;10858;42.714;23.180;2022-12-29T06:51:17;95364.81;;;6.59;77.33
21395;BME280;10858;42.714;23.180;2022-12-29T06:53:43;95365.31;;;6.66;76.62
21395;BME280;10858;42.714;23.180;2022-12-29T06:56:09;95370.44;;;6.69;76.62
21395;BME280;10858;42.714;23.180;2022-12-29T06:58:35;95370.66;;;6.80;75.63
21395;BME280;10858;42.714;23.180;2022-12-29T07:01:02;95369.00;;;6.93;75.66
21395;BME280;10858;42.714;23.180;2022-12-29T07:03:28;95369.84;;;6.94;75.31
21395;BME280;10858;42.714;23.180;2022-12-29T07:05:54;95370.91;;;7.35;75.04
21395;BME280;10858;42.714;23.180;2022-12-29T07:08:20;95373.66;;;7.47;73.94
21395;BME280;10858;42.714;23.180;2022-12-29T07:10:47;95373.19;;;7.55;73.43
21395;BME280;10858;42.714;23.180;2022-12-29T07:13:13;95379.78;;;7.62;73.04
21395;BME280;10858;42.714;23.180;2022-12-29T07:15:39;95377.50;;;7.56;73.06
21395;BME280;10858;42.714;23.180;2022-12-29T07:18:05;95372.97;;;7.58;72.07
21395;BME280;10858;42.714;23.180;2022-12-29T07:20:32;95373.56;;;7.91;72.20
21395;BME280;10858;42.714;23.180;2022-12-29T07:22:58;95366.56;;;7.76;72.32
21395;BME280;10858;42.714;23.180;2022-12-29T07:25:24;95373.38;;;7.80;72.09
21395;BME280;10858;42.714;23.180;2022-12-29T07:27:51;95371.84;;;8.18;71.52
21395;BME280;10858;42.714;23.180;2022-12-29T07:30:17;95366.78;;;8.01;70.48
21395;BME280;10858;42.714;23.180;2022-12-29T07:32:43;95374.50;;;7.90;70.27
21395;BME280;10858;42.714;23.180;2022-12-29T07:35:09;95376.47;;;8.29;70.22
21395;BME280;10858;42.714;23.180;2022-12-29T07:37:36;95374.28;;;8.21;69.25
21395;BME280;10858;42.714;23.180;2022-12-29T07:40:03;95372.88;;;8.02;70.37
21395;BME280;10858;42.714;23.180;2022-12-29T07:42:30;95374.19;;;8.37;69.70
21395;BME280;10858;42.714;23.180;2022-12-29T07:44:56;95366.69;;;8.57;68.66
21395;BME280;10858;42.714;23.180;2022-12-29T07:47:23;95366.38;;;8.62;68.92
21395;BME280;10858;42.714;23.180;2022-12-29T07:49:49;95371.50;;;9.04;67.42
21395;BME280;10858;42.714;23.180;2022-12-29T07:52:16;95374.63;;;9.36;65.93
21395;BME280;10858;42.714;23.180;2022-12-29T07:54:42;95386.50;;;9.43;65.53
21395;BME280;10858;42.714;23.180;2022-12-29T07:57:08;95385.50;;;9.19;65.10
21395;BME280;10858;42.714;23.180;2022-12-29T07:59:34;95379.31;;;9.06;65.66
21395;BME280;10858;42.714;23.180;2022-12-29T08:02:01;95379.91;;;9.36;65.78
21395;BME280;10858;42.714;23.180;2022-12-29T08:04:27;95383.13;;;9.02;65.92
21395;BME280;10858;42.714;23.180;2022-12-29T08:06:53;95389.34;;;9.27;65.63
21395;BME280;10858;42.714;23.180;2022-12-29T08:09:19;95391.78;;;8.91;66.21
21395;BME280;10858;42.714;23.180;2022-12-29T08:11:45;95383.28;;;8.86;66.98
21395;BME280;10858;42.714;23.180;2022-12-29T08:14:12;95375.63;;;8.96;66.05
21395;BME280;10858;42.714;23.180;2022-12-29T08:16:38;95384.41;;;8.70;66.07
21395;BME280;10858;42.714;23.180;2022-12-29T08:19:04;95384.53;;;8.81;66.37
21395;BME280;10858;42.714;23.180;2022-12-29T08:21:31;95387.81;;;8.72;66.43
21395;BME280;10858;42.714;23.180;2022-12-29T08:23:57;95385.34;;;8.69;66.18
21395;BME280;10858;42.714;23.180;2022-12-29T08:26:24;95382.88;;;8.80;66.05
21395;BME280;10858;42.714;23.180;2022-12-29T08:28:53;95385.84;;;8.88;65.84
21395;BME280;10858;42.714;23.180;2022-12-29T08:31:20;95380.34;;;9.30;65.51
21395;BME280;10858;42.714;23.180;2022-12-29T08:33:46;95393.44;;;9.83;63.69
21395;BME280;10858;42.714;23.180;2022-12-29T08:36:12;95388.94;;;10.09;62.17
21395;BME280;10858;42.714;23.180;2022-12-29T08:38:39;95392.38;;;10.11;62.27
21395;BME280;10858;42.714;23.180;2022-12-29T08:41:05;95394.56;;;9.54;63.79
21395;BME280;10858;42.714;23.180;2022-12-29T08:43:31;95382.75;;;10.10;62.95
21395;BME280;10858;42.714;23.180;2022-12-29T08:45:58;95383.03;;;10.05;62.45
21395;BME280;10858;42.714;23.180;2022-12-29T08:48:26;95391.72;;;9.82;63.04
21395;BME280;10858;42.714;23.180;2022-12-29T08:50:52;95383.47;;;9.99;62.46
21395;BME280;10858;42.714;23.180;2022-12-29T08:53:19;95390.56;;;9.86;62.99
21395;BME280;10858;42.714;23.180;2022-12-29T08:55:58;95380.09;;;10.46;60.66
21395;BME280;10858;42.714;23.180;2022-12-29T08:58:26;95379.19;;;10.94;59.80
21395;BME280;10858;42.714;23.180;2022-12-29T09:00:57;95375.28;;;11.11;58.96
21395;BME280;10858;42.714;23.180;2022-12-29T09:03:24;95380.38;;;11.14;58.44
21395;BME280;10858;42.714;23.180;2022-12-29T09:05:52;95374.69;;;11.07;58.46
21395;BME280;10858;42.714;23.180;2022-12-29T09:08:19;95369.94;;;11.00;58.43
21395;BME280;10858;42.714;23.180;2022-12-29T09:10:45;95372.69;;;10.51;59.39
21395;BME280;10858;42.714;23.180;2022-12-29T09:13:12;95365.72;;;10.74;59.63
21395;BME280;10858;42.714;23.180;2022-12-29T09:15:39;95363.34;;;10.82;58.58
21395;BME280;10858;42.714;23.180;2022-12-29T09:18:06;95360.66;;;11.05;57.92
21395;BME280;10858;42.714;23.180;2022-12-29T09:20:33;95361.25;;;11.67;56.86
21395;BME280;10858;42.714;23.180;2022-12-29T09:23:00;95362.16;;;11.44;57.41
21395;BME280;10858;42.714;23.180;2022-12-29T09:25:26;95351.44;;;11.22;57.67
21395;BME280;10858;42.714;23.180;2022-12-29T09:27:53;95355.38;;;11.51;58.58
21395;BME280;10858;42.714;23.180;2022-12-29T09:30:21;95353.38;;;11.20;58.29
21395;BME280;10858;42.714;23.180;2022-12-29T09:32:48;95341.47;;;12.05;56.21
21395;BME280;10858;42.714;23.180;2022-12-29T09:35:15;95344.34;;;12.35;54.91
21395;BME280;10858;42.714;23.180;2022-12-29T09:37:42;95336.88;;;12.18;55.26
21395;BME280;10858;42.714;23.180;2022-12-29T09:40:32;95335.66;;;11.88;56.12
21395;BME280;10858;42.714;23.180;2022-12-29T09:46:26;95327.88;;;11.52;57.05
21395;BME280;10858;42.714;23.180;2022-12-29T09:51:51;95334.13;;;11.51;58.76
21395;BME280;10858;42.714;23.180;2022-12-29T09:54:39;95325.44;;;11.60;57.24
21395;BME280;10858;42.714;23.180;2022-12-29T09:57:25;95320.78;;;11.18;58.89
21395;BME280;10858;42.714;23.180;2022-12-29T09:59:56;95319.97;;;10.94;59.32
21395;BME280;10858;42.714;23.180;2022-12-29T10:05:00;95305.38;;;11.45;58.77
21395;BME280;10858;42.714;23.180;2022-12-29T10:07:33;95311.38;;;11.93;57.22
21395;BME280;10858;42.714;23.180;2022-12-29T10:15:59;95304.22;;;12.38;55.13
21395;BME280;10858;42.714;23.180;2022-12-29T10:24:13;95295.53;;;12.78;54.74
21395;BME280;10858;42.714;23.180;2022-12-29T10:26:42;95290.59;;;12.74;54.18
21395;BME280;10858;42.714;23.180;2022-12-29T10:29:22;95287.72;;;12.55;55.38
21395;BME280;10858;42.714;23.180;2022-12-29T10:31:58;95284.31;;;12.10;55.83
21395;BME280;10858;42.714;23.180;2022-12-29T10:34:34;95278.34;;;12.40;55.80
21395;BME280;10858;42.714;23.180;2022-12-29T10:39:56;95278.72;;;12.78;54.87
21395;BME280;10858;42.714;23.180;2022-12-29T10:42:28;95285.72;;;12.25;55.48
21395;BME280;10858;42.714;23.180;2022-12-29T10:44:55;95274.50;;;12.22;56.37
21395;BME280;10858;42.714;23.180;2022-12-29T10:47:29;95270.94;;;12.43;55.47
21395;BME280;10858;42.714;23.180;2022-12-29T10:49:57;95265.75;;;12.73;54.39
21395;BME280;10858;42.714;23.180;2022-12-29T10:52:27;95265.75;;;12.85;54.32
21395;BME280;10858;42.714;23.180;2022-12-29T10:57:46;95263.25;;;12.61;55.36
21395;BME280;10858;42.714;23.180;2022-12-29T11:05:45;95256.13;;;12.93;53.69
21395;BME280;10858;42.714;23.180;2022-12-29T11:08:19;95248.84;;;12.63;55.42
21395;BME280;10858;42.714;23.180;2022-12-29T11:10:46;95253.25;;;12.85;54.68
21395;BME280;10858;42.714;23.180;2022-12-29T11:13:28;95242.44;;;12.66;55.11
21395;BME280;10858;42.714;23.180;2022-12-29T11:15:55;95234.88;;;11.85;57.81
21395;BME280;10858;42.714;23.180;2022-12-29T11:21:01;95238.34;;;12.19;57.00
21395;BME280;10858;42.714;23.180;2022-12-29T11:23:37;95234.63;;;11.88;58.29
21395;BME280;10858;42.714;23.180;2022-12-29T11:26:17;95245.22;;;12.11;58.00
21395;BME280;10858;42.714;23.180;2022-12-29T11:31:37;95236.69;;;12.50;57.14
21395;BME280;10858;42.714;23.180;2022-12-29T11:34:07;95236.59;;;12.40;56.10
21395;BME280;10858;42.714;23.180;2022-12-29T11:36:34;95238.56;;;12.70;55.49
21395;BME280;10858;42.714;23.180;2022-12-29T11:39:01;95232.34;;;13.12;54.53
21395;BME280;10858;42.714;23.180;2022-12-29T11:41:32;95227.03;;;13.01;55.22
21395;BME280;10858;42.714;23.180;2022-12-29T11:44:02;95230.09;;;12.65;55.88
21395;BME280;10858;42.714;23.180;2022-12-29T11:46:36;95240.41;;;12.90;55.75
21395;BME280;10858;42.714;23.180;2022-12-29T11:49:04;95225.06;;;13.03;55.76
21395;BME280;10858;42.714;23.180;2022-12-29T11:51:43;95230.13;;;13.17;54.96
21395;BME280;10858;42.714;23.180;2022-12-29T11:54:21;95234.78;;;13.25;54.58
21395;BME280;10858;42.714;23.180;2022-12-29T11:56:48;95225.25;;;13.22;54.35
21395;BME280;10858;42.714;23.180;2022-12-29T12:01:57;95224.59;;;13.09;54.87
21395;BME280;10858;42.714;23.180;2022-12-29T12:04:28;95218.50;;;12.66;56.78
21395;BME280;10858;42.714;23.180;2022-12-29T12:07:22;95208.75;;;12.97;56.33
21395;BME280;10858;42.714;23.180;2022-12-29T12:10:00;95210.41;;;13.09;55.23
21395;BME280;10858;42.714;23.180;2022-12-29T12:12:45;95213.41;;;13.15;55.30
21395;BME280;10858;42.714;23.180;2022-12-29T12:15:28;95204.00;;;13.32;54.63
21395;BME280;10858;42.714;23.180;2022-12-29T12:18:28;95206.81;;;12.99;55.29
21395;BME280;10858;42.714;23.180;2022-12-29T12:21:15;95196.84;;;13.12;54.94
21395;BME280;10858;42.714;23.180;2022-12-29T12:28:59;95191.97;;;13.77;53.66
21395;BME280;10858;42.714;23.180;2022-12-29T12:31:41;95186.56;;;13.28;54.70
21395;BME280;10858;42.714;23.180;2022-12-29T12:34:20;95178.69;;;12.85;55.93
21395;BME280;10858;42.714;23.180;2022-12-29T12:37:18;95190.75;;;12.89;56.53
21395;BME280;10858;42.714;23.180;2022-12-29T12:45:32;95184.78;;;13.08;56.40
21395;BME280;10858;42.714;23.180;2022-12-29T12:48:47;95183.22;;;12.73;56.80
21395;BME280;10858;42.714;23.180;2022-12-29T13:01:49;95175.81;;;12.77;56.26
21395;BME280;10858;42.714;23.180;2022-12-29T13:04:45;95178.75;;;13.36;55.70
21395;BME280;10858;42.714;23.180;2022-12-29T13:18:42;95182.41;;;12.41;57.59
21395;BME280;10858;42.714;23.180;2022-12-29T13:24:08;95186.66;;;12.33;58.33
21395;BME280;10858;42.714;23.180;2022-12-29T13:29:17;95182.38;;;12.10;59.78
21395;BME280;10858;42.714;23.180;2022-12-29T13:37:34;95188.00;;;12.27;59.45
21395;BME280;10858;42.714;23.180;2022-12-29T13:40:13;95190.00;;;12.03;59.47
21395;BME280;10858;42.714;23.180;2022-12-29T13:42:41;95192.75;;;12.13;59.49
21395;BME280;10858;42.714;23.180;2022-12-29T13:45:16;95198.13;;;12.02;59.99
21395;BME280;10858;42.714;23.180;2022-12-29T13:50:33;95192.31;;;11.96;60.30
21395;BME280;10858;42.714;23.180;2022-12-29T13:56:39;95188.78;;;12.18;59.42
21395;BME280;10858;42.714;23.180;2022-12-29T14:00:03;95195.81;;;11.97;59.69
21395;BME280;10858;42.714;23.180;2022-12-29T14:05:15;95191.25;;;11.55;61.07
21395;BME280;10858;42.714;23.180;2022-12-29T14:07:42;95196.34;;;11.69;60.54
21395;BME280;10858;42.714;23.180;2022-12-29T14:13:02;95200.91;;;11.56;61.19
21395;BME280;10858;42.714;23.180;2022-12-29T14:15:29;95204.81;;;11.74;61.15
21395;BME280;10858;42.714;23.180;2022-12-29T14:18:24;95199.38;;;11.75;61.75
21395;BME280;10858;42.714;23.180;2022-12-29T14:23:44;95205.97;;;11.59;60.93
21395;BME280;10858;42.714;23.180;2022-12-29T14:26:17;95204.16;;;11.92;60.40
21395;BME280;10858;42.714;23.180;2022-12-29T14:31:43;95204.91;;;11.50;62.45
21395;BME280;10858;42.714;23.180;2022-12-29T14:44:57;95211.75;;;9.79;68.96
21395;BME280;10858;42.714;23.180;2022-12-29T14:50:08;95214.13;;;9.71;69.16
21395;BME280;10858;42.714;23.180;2022-12-29T14:52:54;95232.13;;;9.66;69.15
21395;BME280;10858;42.714;23.180;2022-12-29T14:55:46;95231.75;;;9.47;70.12
21395;BME280;10858;42.714;23.180;2022-12-29T14:58:17;95226.44;;;9.47;70.08
21395;BME280;10858;42.714;23.180;2022-12-29T15:00:45;95227.94;;;9.51;70.04
21395;BME280;10858;42.714;23.180;2022-12-29T15:03:22;95214.38;;;9.43;70.30
21395;BME280;10858;42.714;23.180;2022-12-29T15:06:12;95218.19;;;9.26;71.04
21395;BME280;10858;42.714;23.180;2022-12-29T15:11:51;95205.19;;;8.98;71.64
21395;BME280;10858;42.714;23.180;2022-12-29T15:14:31;95210.78;;;8.69;72.69
21395;BME280;10858;42.714;23.180;2022-12-29T15:16:59;95205.03;;;8.62;73.09
21395;BME280;10858;42.714;23.180;2022-12-29T15:19:26;95204.03;;;8.77;72.25
21395;BME280;10858;42.714;23.180;2022-12-29T15:21:54;95198.50;;;8.68;72.76
21395;BME280;10858;42.714;23.180;2022-12-29T15:24:21;95203.22;;;8.50;72.64
21395;BME280;10858;42.714;23.180;2022-12-29T15:26:51;95208.34;;;8.26;73.81
21395;BME280;10858;42.714;23.180;2022-12-29T15:29:37;95202.03;;;8.29;73.86
21395;BME280;10858;42.714;23.180;2022-12-29T15:34:44;95208.31;;;7.73;76.36
21395;BME280;10858;42.714;23.180;2022-12-29T15:39:49;95212.34;;;7.24;78.65
21395;BME280;10858;42.714;23.180;2022-12-29T15:44:51;95213.66;;;7.45;77.33
21395;BME280;10858;42.714;23.180;2022-12-29T15:47:29;95213.09;;;7.40;77.19
21395;BME280;10858;42.714;23.180;2022-12-29T15:50:03;95211.78;;;7.47;76.83
21395;BME280;10858;42.714;23.180;2022-12-29T15:52:32;95207.91;;;6.82;78.61
21395;BME280;10858;42.714;23.180;2022-12-29T15:54:59;95211.78;;;6.91;78.61
21395;BME280;10858;42.714;23.180;2022-12-29T15:57:35;95204.78;;;6.75;78.53
21395;BME280;10858;42.714;23.180;2022-12-29T16:00:03;95205.47;;;6.65;78.60